sensor_id;sensor_type;location;lat;lon;timestamp;P1;durP1;ratioP1;P2;durP2;ratioP2
19036;SDS011;9651;49.138;8.900;2023-06-26T00:02:51;6.55;;;5.07;;
19036;SDS011;9651;49.138;8.900;2023-06-26T00:06:52;6.93;;;4.97;;
19036;SDS011;9651;49.138;8.900;2023-06-26T00:10:54;6.30;;;5.05;;
19036;SDS011;9651;49.138;8.900;2023-06-26T00:14:56;5.88;;;4.97;;
19036;SDS011;9651;49.138;8.900;2023-06-26T00:19:00;8.13;;;5.30;;
19036;SDS011;9651;49.138;8.900;2023-06-26T00:23:02;7.07;;;5.50;;
19036;SDS011;9651;49.138;8.900;2023-06-26T00:27:07;5.45;;;4.68;;
19036;SDS011;9651;49.138;8.900;2023-06-26T00:31:09;7.45;;;5.35;;
19036;SDS011;9651;49.138;8.900;2023-06-26T00:35:12;6.70;;;5.22;;
19036;SDS011;9651;49.138;8.900;2023-06-26T00:39:15;6.28;;;4.95;;
19036;SDS011;9651;49.138;8.900;2023-06-26T00:43:17;10.10;;;5.47;;
19036;SDS011;9651;49.138;8.900;2023-06-26T00:47:19;6.55;;;5.43;;
19036;SDS011;9651;49.138;8.900;2023-06-26T00:51:22;7.38;;;4.70;;
19036;SDS011;9651;49.138;8.900;2023-06-26T00:55:24;7.40;;;4.90;;
19036;SDS011;9651;49.138;8.900;2023-06-26T00:59:26;8.35;;;5.10;;
19036;SDS011;9651;49.138;8.900;2023-06-26T01:03:29;7.88;;;4.95;;
19036;SDS011;9651;49.138;8.900;2023-06-26T01:07:32;7.82;;;5.50;;
19036;SDS011;9651;49.138;8.900;2023-06-26T01:11:37;6.95;;;5.03;;
19036;SDS011;9651;49.138;8.900;2023-06-26T01:15:39;6.25;;;5.47;;
19036;SDS011;9651;49.138;8.900;2023-06-26T01:19:41;6.95;;;5.38;;
19036;SDS011;9651;49.138;8.900;2023-06-26T01:23:49;8.00;;;5.38;;
19036;SDS011;9651;49.138;8.900;2023-06-26T01:28:01;8.13;;;6.28;;
19036;SDS011;9651;49.138;8.900;2023-06-26T01:32:04;7.15;;;5.78;;
19036;SDS011;9651;49.138;8.900;2023-06-26T01:36:07;8.20;;;5.97;;
19036;SDS011;9651;49.138;8.900;2023-06-26T01:40:10;9.85;;;5.43;;
19036;SDS011;9651;49.138;8.900;2023-06-26T01:44:20;8.60;;;5.72;;
19036;SDS011;9651;49.138;8.900;2023-06-26T01:48:29;5.20;;;4.70;;
19036;SDS011;9651;49.138;8.900;2023-06-26T01:52:35;7.13;;;5.63;;
19036;SDS011;9651;49.138;8.900;2023-06-26T01:56:42;7.32;;;5.60;;
19036;SDS011;9651;49.138;8.900;2023-06-26T02:00:47;7.15;;;5.07;;
19036;SDS011;9651;49.138;8.900;2023-06-26T02:04:49;7.90;;;5.18;;
19036;SDS011;9651;49.138;8.900;2023-06-26T02:08:52;9.10;;;5.13;;
19036;SDS011;9651;49.138;8.900;2023-06-26T02:12:56;7.82;;;5.72;;
19036;SDS011;9651;49.138;8.900;2023-06-26T02:17:00;7.88;;;5.55;;
19036;SDS011;9651;49.138;8.900;2023-06-26T02:21:02;7.53;;;5.15;;
19036;SDS011;9651;49.138;8.900;2023-06-26T02:25:05;8.10;;;5.55;;
19036;SDS011;9651;49.138;8.900;2023-06-26T02:29:07;8.05;;;6.07;;
19036;SDS011;9651;49.138;8.900;2023-06-26T02:33:10;6.97;;;5.57;;
19036;SDS011;9651;49.138;8.900;2023-06-26T02:37:13;9.30;;;5.63;;
19036;SDS011;9651;49.138;8.900;2023-06-26T02:41:16;7.20;;;6.20;;
19036;SDS011;9651;49.138;8.900;2023-06-26T02:45:19;7.97;;;5.15;;
19036;SDS011;9651;49.138;8.900;2023-06-26T02:49:22;6.75;;;5.57;;
19036;SDS011;9651;49.138;8.900;2023-06-26T02:53:24;6.43;;;5.28;;
19036;SDS011;9651;49.138;8.900;2023-06-26T02:57:26;8.13;;;6.13;;
19036;SDS011;9651;49.138;8.900;2023-06-26T03:01:28;7.03;;;5.72;;
19036;SDS011;9651;49.138;8.900;2023-06-26T03:05:31;7.93;;;5.93;;
19036;SDS011;9651;49.138;8.900;2023-06-26T03:09:34;6.55;;;5.40;;
19036;SDS011;9651;49.138;8.900;2023-06-26T03:13:36;8.68;;;5.50;;
19036;SDS011;9651;49.138;8.900;2023-06-26T03:17:38;6.00;;;5.07;;
19036;SDS011;9651;49.138;8.900;2023-06-26T03:21:44;10.70;;;5.47;;
19036;SDS011;9651;49.138;8.900;2023-06-26T03:25:46;8.43;;;6.25;;
19036;SDS011;9651;49.138;8.900;2023-06-26T03:30:01;6.55;;;5.35;;
19036;SDS011;9651;49.138;8.900;2023-06-26T03:34:03;8.20;;;5.78;;
19036;SDS011;9651;49.138;8.900;2023-06-26T03:38:07;6.75;;;5.80;;
19036;SDS011;9651;49.138;8.900;2023-06-26T03:42:09;10.63;;;5.45;;
19036;SDS011;9651;49.138;8.900;2023-06-26T03:46:12;7.20;;;5.65;;
19036;SDS011;9651;49.138;8.900;2023-06-26T03:50:14;6.78;;;5.68;;
19036;SDS011;9651;49.138;8.900;2023-06-26T03:54:17;11.73;;;6.40;;
19036;SDS011;9651;49.138;8.900;2023-06-26T03:58:19;9.25;;;5.60;;
19036;SDS011;9651;49.138;8.900;2023-06-26T04:02:21;14.60;;;5.97;;
19036;SDS011;9651;49.138;8.900;2023-06-26T04:06:23;13.07;;;6.05;;
19036;SDS011;9651;49.138;8.900;2023-06-26T04:10:26;11.23;;;6.05;;
19036;SDS011;9651;49.138;8.900;2023-06-26T04:14:29;11.75;;;5.68;;
19036;SDS011;9651;49.138;8.900;2023-06-26T04:18:30;8.20;;;5.93;;
19036;SDS011;9651;49.138;8.900;2023-06-26T04:22:32;12.35;;;6.00;;
19036;SDS011;9651;49.138;8.900;2023-06-26T04:26:36;12.38;;;6.45;;
19036;SDS011;9651;49.138;8.900;2023-06-26T04:30:38;7.90;;;5.28;;
19036;SDS011;9651;49.138;8.900;2023-06-26T04:34:40;10.32;;;5.50;;
19036;SDS011;9651;49.138;8.900;2023-06-26T04:38:44;7.35;;;5.85;;
19036;SDS011;9651;49.138;8.900;2023-06-26T04:42:47;8.07;;;5.80;;
19036;SDS011;9651;49.138;8.900;2023-06-26T04:46:49;8.02;;;5.70;;
19036;SDS011;9651;49.138;8.900;2023-06-26T04:50:52;9.25;;;6.00;;
19036;SDS011;9651;49.138;8.900;2023-06-26T04:54:54;5.95;;;5.32;;
19036;SDS011;9651;49.138;8.900;2023-06-26T04:58:57;6.53;;;5.40;;
19036;SDS011;9651;49.138;8.900;2023-06-26T05:03:00;7.85;;;6.57;;
19036;SDS011;9651;49.138;8.900;2023-06-26T05:07:01;8.00;;;5.70;;
19036;SDS011;9651;49.138;8.900;2023-06-26T05:11:03;7.05;;;6.30;;
19036;SDS011;9651;49.138;8.900;2023-06-26T05:15:07;8.48;;;5.13;;
19036;SDS011;9651;49.138;8.900;2023-06-26T05:19:09;7.13;;;6.10;;
19036;SDS011;9651;49.138;8.900;2023-06-26T05:23:11;7.55;;;6.38;;
19036;SDS011;9651;49.138;8.900;2023-06-26T05:27:13;8.20;;;5.55;;
19036;SDS011;9651;49.138;8.900;2023-06-26T05:31:23;7.78;;;6.00;;
19036;SDS011;9651;49.138;8.900;2023-06-26T05:35:25;7.10;;;5.53;;
19036;SDS011;9651;49.138;8.900;2023-06-26T05:39:30;7.18;;;5.63;;
19036;SDS011;9651;49.138;8.900;2023-06-26T05:43:32;8.82;;;6.15;;
19036;SDS011;9651;49.138;8.900;2023-06-26T05:47:35;10.30;;;6.53;;
19036;SDS011;9651;49.138;8.900;2023-06-26T05:51:38;9.95;;;5.80;;
19036;SDS011;9651;49.138;8.900;2023-06-26T05:55:40;10.50;;;5.82;;
19036;SDS011;9651;49.138;8.900;2023-06-26T05:59:43;9.70;;;6.32;;
19036;SDS011;9651;49.138;8.900;2023-06-26T06:03:46;8.30;;;5.95;;
19036;SDS011;9651;49.138;8.900;2023-06-26T06:07:48;10.10;;;6.50;;
19036;SDS011;9651;49.138;8.900;2023-06-26T06:11:50;10.13;;;7.32;;
19036;SDS011;9651;49.138;8.900;2023-06-26T06:15:52;10.52;;;6.65;;
19036;SDS011;9651;49.138;8.900;2023-06-26T06:19:56;7.97;;;5.65;;
19036;SDS011;9651;49.138;8.900;2023-06-26T06:23:58;12.52;;;7.13;;
19036;SDS011;9651;49.138;8.900;2023-06-26T06:28:01;9.70;;;6.55;;
19036;SDS011;9651;49.138;8.900;2023-06-26T06:32:03;7.90;;;6.32;;
19036;SDS011;9651;49.138;8.900;2023-06-26T06:36:07;10.77;;;7.40;;
19036;SDS011;9651;49.138;8.900;2023-06-26T06:40:09;6.93;;;5.68;;
19036;SDS011;9651;49.138;8.900;2023-06-26T06:44:11;8.13;;;5.32;;
19036;SDS011;9651;49.138;8.900;2023-06-26T06:48:13;9.38;;;6.25;;
19036;SDS011;9651;49.138;8.900;2023-06-26T06:52:17;7.13;;;6.43;;
19036;SDS011;9651;49.138;8.900;2023-06-26T06:56:18;7.78;;;6.05;;
19036;SDS011;9651;49.138;8.900;2023-06-26T07:00:20;7.43;;;6.15;;
19036;SDS011;9651;49.138;8.900;2023-06-26T07:04:22;8.13;;;6.78;;
19036;SDS011;9651;49.138;8.900;2023-06-26T07:08:26;6.63;;;6.03;;
19036;SDS011;9651;49.138;8.900;2023-06-26T07:12:27;6.60;;;5.63;;
19036;SDS011;9651;49.138;8.900;2023-06-26T07:16:29;6.35;;;5.72;;
19036;SDS011;9651;49.138;8.900;2023-06-26T07:20:31;7.03;;;5.88;;
19036;SDS011;9651;49.138;8.900;2023-06-26T07:24:34;6.90;;;6.03;;
19036;SDS011;9651;49.138;8.900;2023-06-26T07:28:36;7.00;;;5.63;;
19036;SDS011;9651;49.138;8.900;2023-06-26T07:32:38;7.15;;;5.93;;
19036;SDS011;9651;49.138;8.900;2023-06-26T07:36:42;6.10;;;5.50;;
19036;SDS011;9651;49.138;8.900;2023-06-26T07:40:45;6.93;;;6.22;;
19036;SDS011;9651;49.138;8.900;2023-06-26T07:44:47;5.78;;;5.25;;
19036;SDS011;9651;49.138;8.900;2023-06-26T07:48:49;7.05;;;5.63;;
19036;SDS011;9651;49.138;8.900;2023-06-26T07:52:51;5.65;;;5.15;;
19036;SDS011;9651;49.138;8.900;2023-06-26T07:56:55;10.43;;;5.30;;
19036;SDS011;9651;49.138;8.900;2023-06-26T08:00:58;8.40;;;5.05;;
19036;SDS011;9651;49.138;8.900;2023-06-26T08:04:59;5.63;;;5.00;;
19036;SDS011;9651;49.138;8.900;2023-06-26T08:09:01;8.05;;;5.10;;
19036;SDS011;9651;49.138;8.900;2023-06-26T08:13:06;7.18;;;5.25;;
19036;SDS011;9651;49.138;8.900;2023-06-26T08:17:08;5.93;;;4.55;;
19036;SDS011;9651;49.138;8.900;2023-06-26T08:21:10;5.03;;;4.63;;
19036;SDS011;9651;49.138;8.900;2023-06-26T08:25:11;5.55;;;4.88;;
19036;SDS011;9651;49.138;8.900;2023-06-26T08:29:15;5.53;;;4.95;;
19036;SDS011;9651;49.138;8.900;2023-06-26T08:33:17;9.88;;;5.30;;
19036;SDS011;9651;49.138;8.900;2023-06-26T08:37:18;7.15;;;5.50;;
19036;SDS011;9651;49.138;8.900;2023-06-26T08:41:21;6.63;;;5.25;;
19036;SDS011;9651;49.138;8.900;2023-06-26T08:45:25;5.28;;;4.78;;
19036;SDS011;9651;49.138;8.900;2023-06-26T08:49:29;5.28;;;4.78;;
19036;SDS011;9651;49.138;8.900;2023-06-26T08:53:40;6.82;;;5.18;;
19036;SDS011;9651;49.138;8.900;2023-06-26T08:57:46;6.38;;;5.10;;
19036;SDS011;9651;49.138;8.900;2023-06-26T09:01:49;5.47;;;4.97;;
19036;SDS011;9651;49.138;8.900;2023-06-26T09:05:51;7.93;;;5.28;;
19036;SDS011;9651;49.138;8.900;2023-06-26T09:09:53;5.22;;;4.80;;
19036;SDS011;9651;49.138;8.900;2023-06-26T09:13:55;8.80;;;5.20;;
19036;SDS011;9651;49.138;8.900;2023-06-26T09:17:58;7.35;;;5.38;;
19036;SDS011;9651;49.138;8.900;2023-06-26T09:22:00;4.85;;;4.45;;
19036;SDS011;9651;49.138;8.900;2023-06-26T09:26:03;7.50;;;4.95;;
19036;SDS011;9651;49.138;8.900;2023-06-26T09:30:06;5.78;;;5.28;;
19036;SDS011;9651;49.138;8.900;2023-06-26T09:34:10;7.22;;;6.10;;
19036;SDS011;9651;49.138;8.900;2023-06-26T09:38:12;7.53;;;5.60;;
19036;SDS011;9651;49.138;8.900;2023-06-26T09:42:14;5.85;;;5.10;;
19036;SDS011;9651;49.138;8.900;2023-06-26T09:46:17;7.25;;;5.63;;
19036;SDS011;9651;49.138;8.900;2023-06-26T09:50:26;8.93;;;5.55;;
19036;SDS011;9651;49.138;8.900;2023-06-26T09:54:28;6.57;;;5.82;;
19036;SDS011;9651;49.138;8.900;2023-06-26T09:58:32;9.38;;;5.70;;
19036;SDS011;9651;49.138;8.900;2023-06-26T10:02:34;7.80;;;5.63;;
19036;SDS011;9651;49.138;8.900;2023-06-26T10:06:38;6.47;;;5.88;;
19036;SDS011;9651;49.138;8.900;2023-06-26T10:10:45;9.25;;;5.57;;
19036;SDS011;9651;49.138;8.900;2023-06-26T10:14:49;7.45;;;5.90;;
19036;SDS011;9651;49.138;8.900;2023-06-26T10:18:53;6.15;;;5.55;;
19036;SDS011;9651;49.138;8.900;2023-06-26T10:22:59;7.90;;;5.35;;
19036;SDS011;9651;49.138;8.900;2023-06-26T10:27:04;7.45;;;5.22;;
19036;SDS011;9651;49.138;8.900;2023-06-26T10:31:14;8.48;;;6.03;;
19036;SDS011;9651;49.138;8.900;2023-06-26T10:35:17;7.60;;;5.85;;
19036;SDS011;9651;49.138;8.900;2023-06-26T10:39:20;5.85;;;5.32;;
19036;SDS011;9651;49.138;8.900;2023-06-26T10:43:29;7.80;;;4.97;;
19036;SDS011;9651;49.138;8.900;2023-06-26T10:47:32;7.50;;;5.00;;
19036;SDS011;9651;49.138;8.900;2023-06-26T10:51:36;6.25;;;5.30;;
19036;SDS011;9651;49.138;8.900;2023-06-26T10:55:40;5.13;;;4.63;;
19036;SDS011;9651;49.138;8.900;2023-06-26T10:59:43;5.30;;;4.85;;
19036;SDS011;9651;49.138;8.900;2023-06-26T11:03:46;6.85;;;5.35;;
19036;SDS011;9651;49.138;8.900;2023-06-26T11:08:02;6.38;;;5.70;;
19036;SDS011;9651;49.138;8.900;2023-06-26T11:12:07;6.03;;;5.43;;
19036;SDS011;9651;49.138;8.900;2023-06-26T11:16:11;7.00;;;5.28;;
19036;SDS011;9651;49.138;8.900;2023-06-26T11:20:15;16.25;;;5.00;;
19036;SDS011;9651;49.138;8.900;2023-06-26T11:24:18;5.97;;;5.00;;
19036;SDS011;9651;49.138;8.900;2023-06-26T11:28:23;6.97;;;5.40;;
19036;SDS011;9651;49.138;8.900;2023-06-26T11:32:27;7.55;;;5.85;;
19036;SDS011;9651;49.138;8.900;2023-06-26T11:36:30;8.27;;;6.25;;
19036;SDS011;9651;49.138;8.900;2023-06-26T11:40:32;6.07;;;5.30;;
19036;SDS011;9651;49.138;8.900;2023-06-26T11:44:40;6.68;;;5.97;;
19036;SDS011;9651;49.138;8.900;2023-06-26T11:48:44;6.30;;;5.70;;
19036;SDS011;9651;49.138;8.900;2023-06-26T11:52:48;7.40;;;5.80;;
19036;SDS011;9651;49.138;8.900;2023-06-26T11:56:55;9.50;;;4.93;;
19036;SDS011;9651;49.138;8.900;2023-06-26T12:00:59;6.53;;;5.82;;
19036;SDS011;9651;49.138;8.900;2023-06-26T12:05:02;6.22;;;5.70;;
19036;SDS011;9651;49.138;8.900;2023-06-26T12:09:07;6.10;;;5.50;;
19036;SDS011;9651;49.138;8.900;2023-06-26T12:13:11;6.88;;;5.80;;
19036;SDS011;9651;49.138;8.900;2023-06-26T12:17:14;6.47;;;5.78;;
19036;SDS011;9651;49.138;8.900;2023-06-26T12:21:29;6.00;;;5.50;;
19036;SDS011;9651;49.138;8.900;2023-06-26T12:25:45;7.68;;;5.13;;
19036;SDS011;9651;49.138;8.900;2023-06-26T12:29:50;6.35;;;5.85;;
19036;SDS011;9651;49.138;8.900;2023-06-26T12:33:54;7.10;;;5.18;;
19036;SDS011;9651;49.138;8.900;2023-06-26T12:37:56;5.65;;;5.15;;
19036;SDS011;9651;49.138;8.900;2023-06-26T12:42:00;5.72;;;5.22;;
19036;SDS011;9651;49.138;8.900;2023-06-26T12:46:02;5.60;;;4.95;;
19036;SDS011;9651;49.138;8.900;2023-06-26T12:50:06;7.90;;;5.45;;
19036;SDS011;9651;49.138;8.900;2023-06-26T12:54:09;7.22;;;4.63;;
19036;SDS011;9651;49.138;8.900;2023-06-26T12:58:11;5.25;;;4.75;;
19036;SDS011;9651;49.138;8.900;2023-06-26T13:02:13;5.70;;;4.97;;
19036;SDS011;9651;49.138;8.900;2023-06-26T13:06:16;5.40;;;4.93;;
19036;SDS011;9651;49.138;8.900;2023-06-26T13:10:18;4.78;;;4.38;;
19036;SDS011;9651;49.138;8.900;2023-06-26T13:14:20;5.30;;;4.15;;
19036;SDS011;9651;49.138;8.900;2023-06-26T13:18:22;5.85;;;4.60;;
19036;SDS011;9651;49.138;8.900;2023-06-26T13:22:25;4.38;;;3.97;;
19036;SDS011;9651;49.138;8.900;2023-06-26T13:26:27;4.07;;;3.78;;
19036;SDS011;9651;49.138;8.900;2023-06-26T13:30:29;10.60;;;3.35;;
19036;SDS011;9651;49.138;8.900;2023-06-26T13:34:31;5.57;;;3.65;;
19036;SDS011;9651;49.138;8.900;2023-06-26T13:38:34;5.32;;;3.70;;
19036;SDS011;9651;49.138;8.900;2023-06-26T13:42:36;8.70;;;3.75;;
19036;SDS011;9651;49.138;8.900;2023-06-26T13:46:38;5.18;;;3.40;;
19036;SDS011;9651;49.138;8.900;2023-06-26T13:50:40;8.93;;;3.75;;
19036;SDS011;9651;49.138;8.900;2023-06-26T13:54:43;5.65;;;3.05;;
19036;SDS011;9651;49.138;8.900;2023-06-26T13:58:45;4.32;;;3.05;;
19036;SDS011;9651;49.138;8.900;2023-06-26T14:02:47;7.00;;;3.40;;
19036;SDS011;9651;49.138;8.900;2023-06-26T14:06:49;5.38;;;3.35;;
19036;SDS011;9651;49.138;8.900;2023-06-26T14:10:52;5.80;;;3.60;;
19036;SDS011;9651;49.138;8.900;2023-06-26T14:14:54;5.35;;;3.55;;
19036;SDS011;9651;49.138;8.900;2023-06-26T14:18:56;5.20;;;3.95;;
19036;SDS011;9651;49.138;8.900;2023-06-26T14:22:58;8.68;;;4.45;;
19036;SDS011;9651;49.138;8.900;2023-06-26T14:27:02;7.72;;;4.40;;
19036;SDS011;9651;49.138;8.900;2023-06-26T14:31:04;7.60;;;5.25;;
19036;SDS011;9651;49.138;8.900;2023-06-26T14:35:06;8.00;;;6.07;;
19036;SDS011;9651;49.138;8.900;2023-06-26T14:39:08;7.82;;;6.03;;
19036;SDS011;9651;49.138;8.900;2023-06-26T14:43:12;8.38;;;6.50;;
19036;SDS011;9651;49.138;8.900;2023-06-26T14:47:14;9.23;;;6.47;;
19036;SDS011;9651;49.138;8.900;2023-06-26T14:51:16;11.48;;;7.22;;
19036;SDS011;9651;49.138;8.900;2023-06-26T14:55:17;7.22;;;6.53;;
19036;SDS011;9651;49.138;8.900;2023-06-26T14:59:21;10.73;;;7.47;;
19036;SDS011;9651;49.138;8.900;2023-06-26T15:03:23;11.05;;;6.72;;
19036;SDS011;9651;49.138;8.900;2023-06-26T15:07:25;8.40;;;7.22;;
19036;SDS011;9651;49.138;8.900;2023-06-26T15:11:27;9.40;;;6.45;;
19036;SDS011;9651;49.138;8.900;2023-06-26T15:15:31;9.35;;;6.68;;
19036;SDS011;9651;49.138;8.900;2023-06-26T15:19:33;7.43;;;5.35;;
19036;SDS011;9651;49.138;8.900;2023-06-26T15:23:35;5.43;;;3.75;;
19036;SDS011;9651;49.138;8.900;2023-06-26T15:27:38;4.82;;;3.85;;
19036;SDS011;9651;49.138;8.900;2023-06-26T15:31:42;5.38;;;3.53;;
19036;SDS011;9651;49.138;8.900;2023-06-26T15:35:43;4.78;;;2.50;;
19036;SDS011;9651;49.138;8.900;2023-06-26T15:39:45;3.95;;;2.30;;
19036;SDS011;9651;49.138;8.900;2023-06-26T15:43:47;5.03;;;2.00;;
19036;SDS011;9651;49.138;8.900;2023-06-26T15:47:50;4.32;;;2.22;;
19036;SDS011;9651;49.138;8.900;2023-06-26T15:51:53;6.13;;;1.75;;
19036;SDS011;9651;49.138;8.900;2023-06-26T15:55:55;3.45;;;1.80;;
19036;SDS011;9651;49.138;8.900;2023-06-26T15:59:57;3.05;;;1.50;;
19036;SDS011;9651;49.138;8.900;2023-06-26T16:04:00;3.53;;;1.98;;
19036;SDS011;9651;49.138;8.900;2023-06-26T16:08:02;2.17;;;1.30;;
19036;SDS011;9651;49.138;8.900;2023-06-26T16:12:05;5.97;;;1.70;;
19036;SDS011;9651;49.138;8.900;2023-06-26T16:16:07;4.13;;;1.60;;
19036;SDS011;9651;49.138;8.900;2023-06-26T16:20:11;4.38;;;1.70;;
19036;SDS011;9651;49.138;8.900;2023-06-26T16:24:13;1.98;;;1.25;;
19036;SDS011;9651;49.138;8.900;2023-06-26T16:28:15;3.25;;;1.65;;
19036;SDS011;9651;49.138;8.900;2023-06-26T16:32:16;3.92;;;1.92;;
19036;SDS011;9651;49.138;8.900;2023-06-26T16:36:20;3.33;;;1.40;;
19036;SDS011;9651;49.138;8.900;2023-06-26T16:40:22;3.65;;;1.63;;
19036;SDS011;9651;49.138;8.900;2023-06-26T16:44:24;4.85;;;2.00;;
19036;SDS011;9651;49.138;8.900;2023-06-26T16:48:25;5.07;;;1.65;;
19036;SDS011;9651;49.138;8.900;2023-06-26T16:52:29;5.60;;;1.80;;
19036;SDS011;9651;49.138;8.900;2023-06-26T16:56:31;4.90;;;1.83;;
19036;SDS011;9651;49.138;8.900;2023-06-26T17:00:32;2.65;;;1.98;;
19036;SDS011;9651;49.138;8.900;2023-06-26T17:04:35;2.45;;;1.30;;
19036;SDS011;9651;49.138;8.900;2023-06-26T17:08:38;9.50;;;2.00;;
19036;SDS011;9651;49.138;8.900;2023-06-26T17:12:40;3.90;;;1.60;;
19036;SDS011;9651;49.138;8.900;2023-06-26T17:16:43;4.32;;;1.88;;
19036;SDS011;9651;49.138;8.900;2023-06-26T17:20:44;4.85;;;1.50;;
19036;SDS011;9651;49.138;8.900;2023-06-26T17:24:48;5.30;;;1.92;;
19036;SDS011;9651;49.138;8.900;2023-06-26T17:28:50;3.08;;;1.33;;
19036;SDS011;9651;49.138;8.900;2023-06-26T17:32:51;2.65;;;1.50;;
19036;SDS011;9651;49.138;8.900;2023-06-26T17:36:54;3.85;;;1.50;;
19036;SDS011;9651;49.138;8.900;2023-06-26T17:40:57;6.68;;;1.70;;
19036;SDS011;9651;49.138;8.900;2023-06-26T17:44:59;5.28;;;1.23;;
19036;SDS011;9651;49.138;8.900;2023-06-26T17:49:02;2.38;;;1.20;;
19036;SDS011;9651;49.138;8.900;2023-06-26T17:53:04;4.57;;;1.40;;
19036;SDS011;9651;49.138;8.900;2023-06-26T17:57:08;3.30;;;1.25;;
19036;SDS011;9651;49.138;8.900;2023-06-26T18:01:20;5.65;;;1.35;;
19036;SDS011;9651;49.138;8.900;2023-06-26T18:05:22;2.65;;;1.42;;
19036;SDS011;9651;49.138;8.900;2023-06-26T18:09:24;5.63;;;1.45;;
19036;SDS011;9651;49.138;8.900;2023-06-26T18:13:27;2.30;;;1.17;;
19036;SDS011;9651;49.138;8.900;2023-06-26T18:17:31;2.65;;;1.30;;
19036;SDS011;9651;49.138;8.900;2023-06-26T18:21:33;2.63;;;1.45;;
19036;SDS011;9651;49.138;8.900;2023-06-26T18:25:35;10.38;;;1.95;;
19036;SDS011;9651;49.138;8.900;2023-06-26T18:29:38;4.43;;;1.42;;
19036;SDS011;9651;49.138;8.900;2023-06-26T18:33:40;3.22;;;1.55;;
19036;SDS011;9651;49.138;8.900;2023-06-26T18:37:42;9.30;;;1.65;;
19036;SDS011;9651;49.138;8.900;2023-06-26T18:41:44;2.00;;;1.10;;
19036;SDS011;9651;49.138;8.900;2023-06-26T18:45:47;3.15;;;1.55;;
19036;SDS011;9651;49.138;8.900;2023-06-26T18:49:49;6.68;;;1.40;;
19036;SDS011;9651;49.138;8.900;2023-06-26T18:53:52;2.88;;;1.33;;
19036;SDS011;9651;49.138;8.900;2023-06-26T18:57:55;4.07;;;1.75;;
19036;SDS011;9651;49.138;8.900;2023-06-26T19:01:58;3.45;;;1.70;;
19036;SDS011;9651;49.138;8.900;2023-06-26T19:06:00;2.70;;;1.40;;
19036;SDS011;9651;49.138;8.900;2023-06-26T19:10:02;3.45;;;1.40;;
19036;SDS011;9651;49.138;8.900;2023-06-26T19:14:04;3.55;;;1.30;;
19036;SDS011;9651;49.138;8.900;2023-06-26T19:18:07;2.78;;;1.40;;
19036;SDS011;9651;49.138;8.900;2023-06-26T19:22:09;3.80;;;1.33;;
19036;SDS011;9651;49.138;8.900;2023-06-26T19:26:11;2.80;;;1.25;;
19036;SDS011;9651;49.138;8.900;2023-06-26T19:30:13;5.40;;;1.70;;
19036;SDS011;9651;49.138;8.900;2023-06-26T19:34:17;5.30;;;1.33;;
19036;SDS011;9651;49.138;8.900;2023-06-26T19:38:19;4.60;;;1.60;;
19036;SDS011;9651;49.138;8.900;2023-06-26T19:42:21;4.38;;;1.95;;
19036;SDS011;9651;49.138;8.900;2023-06-26T19:46:23;4.93;;;1.40;;
19036;SDS011;9651;49.138;8.900;2023-06-26T19:50:26;4.93;;;1.10;;
19036;SDS011;9651;49.138;8.900;2023-06-26T19:54:28;3.08;;;1.17;;
19036;SDS011;9651;49.138;8.900;2023-06-26T19:58:30;4.18;;;1.65;;
19036;SDS011;9651;49.138;8.900;2023-06-26T20:02:32;2.25;;;1.02;;
19036;SDS011;9651;49.138;8.900;2023-06-26T20:06:36;6.05;;;1.63;;
19036;SDS011;9651;49.138;8.900;2023-06-26T20:10:38;2.60;;;1.23;;
19036;SDS011;9651;49.138;8.900;2023-06-26T20:14:40;3.13;;;1.60;;
19036;SDS011;9651;49.138;8.900;2023-06-26T20:18:42;3.20;;;1.60;;
19036;SDS011;9651;49.138;8.900;2023-06-26T20:22:45;2.50;;;1.50;;
19036;SDS011;9651;49.138;8.900;2023-06-26T20:26:48;1.80;;;1.23;;
19036;SDS011;9651;49.138;8.900;2023-06-26T20:30:50;3.28;;;1.40;;
19036;SDS011;9651;49.138;8.900;2023-06-26T20:34:52;1.63;;;1.05;;
19036;SDS011;9651;49.138;8.900;2023-06-26T20:38:55;4.65;;;1.60;;
19036;SDS011;9651;49.138;8.900;2023-06-26T20:42:57;3.50;;;1.20;;
19036;SDS011;9651;49.138;8.900;2023-06-26T20:47:00;2.85;;;1.52;;
19036;SDS011;9651;49.138;8.900;2023-06-26T20:51:08;2.15;;;1.30;;
19036;SDS011;9651;49.138;8.900;2023-06-26T20:55:13;4.03;;;1.30;;
19036;SDS011;9651;49.138;8.900;2023-06-26T20:59:16;3.30;;;1.63;;
19036;SDS011;9651;49.138;8.900;2023-06-26T21:03:18;2.60;;;1.33;;
19036;SDS011;9651;49.138;8.900;2023-06-26T21:07:19;4.03;;;1.58;;
19036;SDS011;9651;49.138;8.900;2023-06-26T21:11:23;2.92;;;1.60;;
19036;SDS011;9651;49.138;8.900;2023-06-26T21:15:25;7.07;;;1.63;;
19036;SDS011;9651;49.138;8.900;2023-06-26T21:19:27;4.45;;;1.40;;
19036;SDS011;9651;49.138;8.900;2023-06-26T21:23:28;6.07;;;1.80;;
19036;SDS011;9651;49.138;8.900;2023-06-26T21:27:32;5.70;;;1.95;;
19036;SDS011;9651;49.138;8.900;2023-06-26T21:31:33;4.38;;;2.20;;
19036;SDS011;9651;49.138;8.900;2023-06-26T21:35:35;6.18;;;2.40;;
19036;SDS011;9651;49.138;8.900;2023-06-26T21:39:37;5.43;;;2.22;;
19036;SDS011;9651;49.138;8.900;2023-06-26T21:43:41;6.82;;;2.53;;
19036;SDS011;9651;49.138;8.900;2023-06-26T21:47:42;5.05;;;2.42;;
19036;SDS011;9651;49.138;8.900;2023-06-26T21:51:44;4.80;;;2.40;;
19036;SDS011;9651;49.138;8.900;2023-06-26T21:55:46;12.88;;;2.90;;
19036;SDS011;9651;49.138;8.900;2023-06-26T21:59:49;6.40;;;2.85;;
19036;SDS011;9651;49.138;8.900;2023-06-26T22:03:51;5.32;;;2.85;;
19036;SDS011;9651;49.138;8.900;2023-06-26T22:07:53;8.35;;;3.08;;
19036;SDS011;9651;49.138;8.900;2023-06-26T22:11:56;9.15;;;2.95;;
19036;SDS011;9651;49.138;8.900;2023-06-26T22:15:59;4.63;;;2.13;;
19036;SDS011;9651;49.138;8.900;2023-06-26T22:20:01;4.25;;;2.50;;
19036;SDS011;9651;49.138;8.900;2023-06-26T22:24:04;6.85;;;2.38;;
19036;SDS011;9651;49.138;8.900;2023-06-26T22:33:29;4.45;;;1.80;;
19036;SDS011;9651;49.138;8.900;2023-06-26T22:37:31;6.57;;;2.20;;
19036;SDS011;9651;49.138;8.900;2023-06-26T22:41:32;3.28;;;1.70;;
19036;SDS011;9651;49.138;8.900;2023-06-26T22:45:34;3.50;;;1.65;;
19036;SDS011;9651;49.138;8.900;2023-06-26T22:49:37;3.45;;;1.67;;
19036;SDS011;9651;49.138;8.900;2023-06-26T22:53:40;2.97;;;2.28;;
19036;SDS011;9651;49.138;8.900;2023-06-26T22:57:42;4.28;;;1.75;;
19036;SDS011;9651;49.138;8.900;2023-06-26T23:01:43;6.15;;;2.08;;
19036;SDS011;9651;49.138;8.900;2023-06-26T23:05:47;5.93;;;1.40;;
19036;SDS011;9651;49.138;8.900;2023-06-26T23:09:57;2.20;;;1.60;;
19036;SDS011;9651;49.138;8.900;2023-06-26T23:13:58;3.65;;;1.55;;
19036;SDS011;9651;49.138;8.900;2023-06-26T23:18:00;4.90;;;1.60;;
19036;SDS011;9651;49.138;8.900;2023-06-26T23:22:04;3.25;;;1.70;;
19036;SDS011;9651;49.138;8.900;2023-06-26T23:26:09;4.80;;;1.75;;
19036;SDS011;9651;49.138;8.900;2023-06-26T23:30:11;2.63;;;1.50;;
19036;SDS011;9651;49.138;8.900;2023-06-26T23:34:13;4.13;;;1.50;;
19036;SDS011;9651;49.138;8.900;2023-06-26T23:38:19;6.47;;;2.38;;
19036;SDS011;9651;49.138;8.900;2023-06-26T23:42:21;4.40;;;2.00;;
19036;SDS011;9651;49.138;8.900;2023-06-26T23:46:23;4.35;;;1.85;;
19036;SDS011;9651;49.138;8.900;2023-06-26T23:50:28;6.50;;;2.53;;
19036;SDS011;9651;49.138;8.900;2023-06-26T23:54:32;3.83;;;1.85;;
19036;SDS011;9651;49.138;8.900;2023-06-26T23:58:33;2.92;;;1.42;;
